sensor_id;sensor_type;location;lat;lon;timestamp;pressure;altitude;pressure_sealevel;temperature;humidity
62703;BME280;66022;50.448;18.122;2023-06-04T00:02:23;99629.43;;;13.19;45.22
62703;BME280;66022;50.448;18.122;2023-06-04T00:06:31;99625.89;;;13.16;45.50
62703;BME280;66022;50.448;18.122;2023-06-04T00:10:39;99621.88;;;13.15;45.30
62703;BME280;66022;50.448;18.122;2023-06-04T00:14:47;99618.67;;;13.11;46.22
62703;BME280;66022;50.448;18.122;2023-06-04T00:18:55;99615.77;;;13.09;45.91
62703;BME280;66022;50.448;18.122;2023-06-04T00:23:03;99613.79;;;13.07;46.32
62703;BME280;66022;50.448;18.122;2023-06-04T00:27:14;99611.91;;;13.06;46.14
62703;BME280;66022;50.448;18.122;2023-06-04T00:31:19;99608.92;;;13.03;46.38
62703;BME280;66022;50.448;18.122;2023-06-04T00:35:27;99606.06;;;13.01;46.98
62703;BME280;66022;50.448;18.122;2023-06-04T00:39:35;99603.91;;;12.99;46.71
62703;BME280;66022;50.448;18.122;2023-06-04T00:43:43;99601.14;;;12.96;48.04
62703;BME280;66022;50.448;18.122;2023-06-04T00:47:52;99599.02;;;12.95;46.92
62703;BME280;66022;50.448;18.122;2023-06-04T00:51:59;99595.04;;;12.93;46.83
62703;BME280;66022;50.448;18.122;2023-06-04T00:56:07;99590.99;;;12.90;47.53
62703;BME280;66022;50.448;18.122;2023-06-04T01:00:15;99588.46;;;12.90;47.02
62703;BME280;66022;50.448;18.122;2023-06-04T01:04:27;99585.39;;;12.88;48.21
62703;BME280;66022;50.448;18.122;2023-06-04T01:08:31;99582.87;;;12.88;48.19
62703;BME280;66022;50.448;18.122;2023-06-04T01:12:40;99579.30;;;12.86;48.08
62703;BME280;66022;50.448;18.122;2023-06-04T01:16:53;99577.15;;;12.83;48.25
62703;BME280;66022;50.448;18.122;2023-06-04T01:20:59;99574.03;;;12.81;48.06
62703;BME280;66022;50.448;18.122;2023-06-04T01:25:13;99571.26;;;12.76;48.91
62703;BME280;66022;50.448;18.122;2023-06-04T01:29:11;99569.00;;;12.73;48.18
62703;BME280;66022;50.448;18.122;2023-06-04T01:33:19;99568.34;;;12.69;48.59
62703;BME280;66022;50.448;18.122;2023-06-04T01:37:27;99565.58;;;12.64;48.85
62703;BME280;66022;50.448;18.122;2023-06-04T01:41:35;99562.53;;;12.59;49.78
62703;BME280;66022;50.448;18.122;2023-06-04T01:45:43;99561.10;;;12.52;49.81
62703;BME280;66022;50.448;18.122;2023-06-04T01:49:51;99560.80;;;12.48;49.39
62703;BME280;66022;50.448;18.122;2023-06-04T01:53:59;99561.30;;;12.41;51.64
62703;BME280;66022;50.448;18.122;2023-06-04T01:58:07;99560.90;;;12.36;50.18
62703;BME280;66022;50.448;18.122;2023-06-04T02:02:15;99561.44;;;12.31;50.75
62703;BME280;66022;50.448;18.122;2023-06-04T02:06:23;99561.68;;;12.25;51.29
62703;BME280;66022;50.448;18.122;2023-06-04T02:10:31;99561.02;;;12.21;50.02
62703;BME280;66022;50.448;18.122;2023-06-04T02:14:39;99561.05;;;12.17;51.61
62703;BME280;66022;50.448;18.122;2023-06-04T02:18:47;99561.25;;;12.14;50.69
62703;BME280;66022;50.448;18.122;2023-06-04T02:22:55;99561.10;;;12.11;50.40
62703;BME280;66022;50.448;18.122;2023-06-04T02:27:03;99562.03;;;12.07;50.53
62703;BME280;66022;50.448;18.122;2023-06-04T02:31:11;99561.16;;;12.05;50.84
62703;BME280;66022;50.448;18.122;2023-06-04T02:35:19;99559.93;;;12.03;51.29
62703;BME280;66022;50.448;18.122;2023-06-04T02:39:27;99558.37;;;12.01;50.52
62703;BME280;66022;50.448;18.122;2023-06-04T02:43:36;99556.44;;;11.98;53.03
62703;BME280;66022;50.448;18.122;2023-06-04T02:47:43;99554.93;;;11.97;52.04
62703;BME280;66022;50.448;18.122;2023-06-04T02:51:51;99554.10;;;11.97;50.50
62703;BME280;66022;50.448;18.122;2023-06-04T02:55:59;99553.54;;;11.95;51.94
62703;BME280;66022;50.448;18.122;2023-06-04T03:00:08;99554.02;;;11.96;50.87
62703;BME280;66022;50.448;18.122;2023-06-04T03:04:15;99555.03;;;11.96;52.51
62703;BME280;66022;50.448;18.122;2023-06-04T03:08:23;99555.07;;;11.98;51.04
62703;BME280;66022;50.448;18.122;2023-06-04T03:12:31;99556.31;;;12.00;52.00
62703;BME280;66022;50.448;18.122;2023-06-04T03:16:39;99557.05;;;12.00;50.79
62703;BME280;66022;50.448;18.122;2023-06-04T03:20:47;99557.69;;;12.02;51.13
62703;BME280;66022;50.448;18.122;2023-06-04T03:24:55;99559.18;;;12.02;51.52
62703;BME280;66022;50.448;18.122;2023-06-04T03:29:06;99561.74;;;12.05;50.65
62703;BME280;66022;50.448;18.122;2023-06-04T03:33:11;99564.67;;;12.09;50.85
62703;BME280;66022;50.448;18.122;2023-06-04T03:37:19;99567.19;;;12.16;50.18
62703;BME280;66022;50.448;18.122;2023-06-04T03:41:27;99569.41;;;12.25;50.11
62703;BME280;66022;50.448;18.122;2023-06-04T03:45:35;99572.86;;;12.36;50.30
62703;BME280;66022;50.448;18.122;2023-06-04T03:49:43;99577.03;;;12.52;49.30
62703;BME280;66022;50.448;18.122;2023-06-04T03:53:51;99581.03;;;12.67;53.13
62703;BME280;66022;50.448;18.122;2023-06-04T03:58:00;99585.10;;;12.86;50.18
62703;BME280;66022;50.448;18.122;2023-06-04T04:02:07;99586.32;;;13.03;50.52
62703;BME280;66022;50.448;18.122;2023-06-04T04:06:16;99588.16;;;13.19;51.13
62703;BME280;66022;50.448;18.122;2023-06-04T04:10:23;99588.83;;;13.39;50.43
62703;BME280;66022;50.448;18.122;2023-06-04T04:14:32;99589.23;;;13.57;51.79
62703;BME280;66022;50.448;18.122;2023-06-04T04:18:41;99590.14;;;13.81;49.71
62703;BME280;66022;50.448;18.122;2023-06-04T04:22:48;99591.02;;;14.08;49.27
62703;BME280;66022;50.448;18.122;2023-06-04T04:26:56;99591.47;;;14.36;48.80
62703;BME280;66022;50.448;18.122;2023-06-04T04:31:04;99592.70;;;14.71;47.69
62703;BME280;66022;50.448;18.122;2023-06-04T04:35:12;99593.71;;;15.13;47.40
62703;BME280;66022;50.448;18.122;2023-06-04T04:39:22;99594.83;;;15.73;44.48
62703;BME280;66022;50.448;18.122;2023-06-04T04:47:36;99597.02;;;18.23;36.09
62703;BME280;66022;50.448;18.122;2023-06-04T04:51:44;99598.64;;;19.94;32.79
62703;BME280;66022;50.448;18.122;2023-06-04T04:55:52;99599.49;;;21.47;31.57
62703;BME280;66022;50.448;18.122;2023-06-04T05:00:00;99601.84;;;23.13;30.05
62703;BME280;66022;50.448;18.122;2023-06-04T05:04:08;99602.94;;;24.41;27.85
62703;BME280;66022;50.448;18.122;2023-06-04T05:08:16;99605.28;;;25.79;28.65
62703;BME280;66022;50.448;18.122;2023-06-04T05:12:24;99606.86;;;27.05;27.83
62703;BME280;66022;50.448;18.122;2023-06-04T05:16:32;99607.34;;;27.98;26.21
62703;BME280;66022;50.448;18.122;2023-06-04T05:20:40;99607.37;;;28.89;27.66
62703;BME280;66022;50.448;18.122;2023-06-04T05:24:48;99608.79;;;29.57;27.12
62703;BME280;66022;50.448;18.122;2023-06-04T05:28:56;99609.98;;;30.18;27.49
62703;BME280;66022;50.448;18.122;2023-06-04T05:33:07;99610.47;;;30.67;27.42
62703;BME280;66022;50.448;18.122;2023-06-04T05:37:12;99611.58;;;30.90;27.11
62703;BME280;66022;50.448;18.122;2023-06-04T05:41:19;99612.91;;;31.04;28.31
62703;BME280;66022;50.448;18.122;2023-06-04T05:45:28;99613.67;;;30.95;29.12
62703;BME280;66022;50.448;18.122;2023-06-04T05:49:36;99615.55;;;30.73;30.10
62703;BME280;66022;50.448;18.122;2023-06-04T05:53:44;99616.68;;;30.20;27.66
62703;BME280;66022;50.448;18.122;2023-06-04T05:57:52;99617.14;;;29.63;31.85
62703;BME280;66022;50.448;18.122;2023-06-04T06:02:00;99617.27;;;29.14;32.68
62703;BME280;66022;50.448;18.122;2023-06-04T06:06:08;99617.80;;;28.64;31.62
62703;BME280;66022;50.448;18.122;2023-06-04T06:10:16;99617.13;;;28.26;31.59
62703;BME280;66022;50.448;18.122;2023-06-04T06:14:24;99618.28;;;27.85;31.97
62703;BME280;66022;50.448;18.122;2023-06-04T06:18:32;99621.59;;;27.60;31.94
62703;BME280;66022;50.448;18.122;2023-06-04T06:22:40;99624.33;;;27.45;31.87
62703;BME280;66022;50.448;18.122;2023-06-04T06:26:48;99625.89;;;27.20;33.03
62703;BME280;66022;50.448;18.122;2023-06-04T06:30:56;99627.31;;;27.14;32.28
62703;BME280;66022;50.448;18.122;2023-06-04T06:35:04;99628.91;;;27.10;31.99
62703;BME280;66022;50.448;18.122;2023-06-04T06:39:12;99629.80;;;27.12;29.31
62703;BME280;66022;50.448;18.122;2023-06-04T06:43:19;99631.49;;;27.14;31.87
62703;BME280;66022;50.448;18.122;2023-06-04T06:47:28;99631.37;;;26.98;31.14
62703;BME280;66022;50.448;18.122;2023-06-04T06:51:36;99632.54;;;26.90;31.67
62703;BME280;66022;50.448;18.122;2023-06-04T06:55:44;99633.94;;;26.80;32.61
62703;BME280;66022;50.448;18.122;2023-06-04T06:59:52;99636.30;;;26.83;31.38
62703;BME280;66022;50.448;18.122;2023-06-04T07:04:00;99636.97;;;26.73;28.61
62703;BME280;66022;50.448;18.122;2023-06-04T07:08:08;99637.13;;;26.72;31.75
62703;BME280;66022;50.448;18.122;2023-06-04T07:12:16;99637.19;;;26.71;30.27
62703;BME280;66022;50.448;18.122;2023-06-04T07:16:24;99637.72;;;26.60;31.34
62703;BME280;66022;50.448;18.122;2023-06-04T07:20:32;99637.05;;;26.56;30.25
62703;BME280;66022;50.448;18.122;2023-06-04T07:24:40;99634.91;;;26.48;30.72
62703;BME280;66022;50.448;18.122;2023-06-04T07:28:48;99633.18;;;26.46;31.76
62703;BME280;66022;50.448;18.122;2023-06-04T07:32:56;99632.72;;;26.44;31.98
62703;BME280;66022;50.448;18.122;2023-06-04T07:37:04;99632.42;;;26.41;32.10
62703;BME280;66022;50.448;18.122;2023-06-04T07:41:12;99632.31;;;26.39;30.79
62703;BME280;66022;50.448;18.122;2023-06-04T07:45:20;99631.80;;;26.33;31.41
62703;BME280;66022;50.448;18.122;2023-06-04T07:49:28;99631.22;;;26.26;31.81
62703;BME280;66022;50.448;18.122;2023-06-04T07:53:36;99631.52;;;26.20;27.71
62703;BME280;66022;50.448;18.122;2023-06-04T07:57:44;99632.42;;;26.15;29.86
62703;BME280;66022;50.448;18.122;2023-06-04T08:01:52;99632.76;;;26.13;30.81
62703;BME280;66022;50.448;18.122;2023-06-04T08:06:00;99632.76;;;26.02;31.25
62703;BME280;66022;50.448;18.122;2023-06-04T08:10:08;99632.93;;;26.06;30.32
62703;BME280;66022;50.448;18.122;2023-06-04T08:14:16;99633.79;;;26.02;30.21
62703;BME280;66022;50.448;18.122;2023-06-04T08:18:24;99634.20;;;26.02;31.88
62703;BME280;66022;50.448;18.122;2023-06-04T08:22:32;99633.81;;;26.07;31.93
62703;BME280;66022;50.448;18.122;2023-06-04T08:26:40;99635.06;;;26.07;30.94
62703;BME280;66022;50.448;18.122;2023-06-04T08:30:48;99635.46;;;26.09;28.09
62703;BME280;66022;50.448;18.122;2023-06-04T08:34:56;99635.75;;;26.07;30.39
62703;BME280;66022;50.448;18.122;2023-06-04T08:39:04;99637.19;;;26.08;29.83
62703;BME280;66022;50.448;18.122;2023-06-04T08:43:12;99638.84;;;25.98;31.62
62703;BME280;66022;50.448;18.122;2023-06-04T08:47:20;99638.11;;;25.94;30.89
62703;BME280;66022;50.448;18.122;2023-06-04T08:51:28;99639.00;;;25.98;30.13
62703;BME280;66022;50.448;18.122;2023-06-04T08:55:36;99639.67;;;25.91;30.85
62703;BME280;66022;50.448;18.122;2023-06-04T08:59:45;99641.88;;;25.94;30.43
62703;BME280;66022;50.448;18.122;2023-06-04T09:03:52;99643.69;;;25.86;26.91
62703;BME280;66022;50.448;18.122;2023-06-04T09:08:00;99645.50;;;25.82;28.81
62703;BME280;66022;50.448;18.122;2023-06-04T09:12:11;99646.35;;;25.81;29.03
62703;BME280;66022;50.448;18.122;2023-06-04T09:16:16;99647.89;;;25.74;30.73
62703;BME280;66022;50.448;18.122;2023-06-04T09:20:24;99648.02;;;25.79;30.15
62703;BME280;66022;50.448;18.122;2023-06-04T09:28:46;99645.53;;;25.90;29.72
62703;BME280;66022;50.448;18.122;2023-06-04T09:32:48;99645.22;;;25.95;25.87
62703;BME280;66022;50.448;18.122;2023-06-04T09:36:56;99644.01;;;25.93;30.38
62703;BME280;66022;50.448;18.122;2023-06-04T09:41:10;99642.52;;;25.99;29.21
62703;BME280;66022;50.448;18.122;2023-06-04T09:45:12;99639.78;;;26.08;30.05
62703;BME280;66022;50.448;18.122;2023-06-04T09:49:20;99638.69;;;26.17;29.31
62703;BME280;66022;50.448;18.122;2023-06-04T09:53:28;99637.02;;;26.13;27.75
62703;BME280;66022;50.448;18.122;2023-06-04T09:57:36;99634.50;;;26.09;30.44
62703;BME280;66022;50.448;18.122;2023-06-04T10:01:44;99633.67;;;26.05;30.22
62703;BME280;66022;50.448;18.122;2023-06-04T10:05:53;99633.04;;;26.00;30.96
62703;BME280;66022;50.448;18.122;2023-06-04T10:10:00;99630.45;;;26.02;30.11
62703;BME280;66022;50.448;18.122;2023-06-04T10:18:17;99626.61;;;25.95;29.48
62703;BME280;66022;50.448;18.122;2023-06-04T10:22:25;99626.17;;;25.96;29.59
62703;BME280;66022;50.448;18.122;2023-06-04T10:26:33;99625.19;;;25.94;30.20
62703;BME280;66022;50.448;18.122;2023-06-04T10:30:40;99624.94;;;26.02;30.31
62703;BME280;66022;50.448;18.122;2023-06-04T10:34:48;99626.17;;;26.08;29.13
62703;BME280;66022;50.448;18.122;2023-06-04T10:38:59;99626.29;;;26.10;30.13
62703;BME280;66022;50.448;18.122;2023-06-04T10:43:08;99626.51;;;26.10;30.23
62703;BME280;66022;50.448;18.122;2023-06-04T10:55:29;99624.04;;;26.04;29.33
62703;BME280;66022;50.448;18.122;2023-06-04T10:59:36;99621.73;;;26.02;30.15
62703;BME280;66022;50.448;18.122;2023-06-04T11:03:44;99619.33;;;26.01;28.24
62703;BME280;66022;50.448;18.122;2023-06-04T11:07:52;99617.27;;;26.07;30.41
62703;BME280;66022;50.448;18.122;2023-06-04T11:12:03;99615.33;;;26.16;29.76
62703;BME280;66022;50.448;18.122;2023-06-04T11:20:17;99612.91;;;26.19;29.48
62703;BME280;66022;50.448;18.122;2023-06-04T11:24:27;99611.24;;;26.15;29.14
62703;BME280;66022;50.448;18.122;2023-06-04T11:28:32;99609.88;;;26.16;31.42
62703;BME280;66022;50.448;18.122;2023-06-04T11:32:43;99609.36;;;26.16;28.78
62703;BME280;66022;50.448;18.122;2023-06-04T11:36:48;99608.25;;;26.04;30.03
62703;BME280;66022;50.448;18.122;2023-06-04T11:40:59;99606.25;;;25.99;31.61
62703;BME280;66022;50.448;18.122;2023-06-04T11:45:05;99605.04;;;25.97;31.13
62703;BME280;66022;50.448;18.122;2023-06-04T11:49:16;99604.81;;;25.99;31.09
62703;BME280;66022;50.448;18.122;2023-06-04T11:53:20;99603.30;;;25.98;31.59
62703;BME280;66022;50.448;18.122;2023-06-04T11:57:29;99602.80;;;25.88;31.06
62703;BME280;66022;50.448;18.122;2023-06-04T12:01:36;99602.45;;;25.78;31.19
62703;BME280;66022;50.448;18.122;2023-06-04T12:05:45;99601.29;;;25.67;30.48
62703;BME280;66022;50.448;18.122;2023-06-04T12:09:52;99599.40;;;25.64;29.01
62703;BME280;66022;50.448;18.122;2023-06-04T12:14:03;99599.33;;;25.43;28.61
62703;BME280;66022;50.448;18.122;2023-06-04T12:18:08;99599.02;;;25.31;31.17
62703;BME280;66022;50.448;18.122;2023-06-04T12:22:17;99598.08;;;25.24;30.86
62703;BME280;66022;50.448;18.122;2023-06-04T12:26:24;99596.04;;;25.12;31.25
62703;BME280;66022;50.448;18.122;2023-06-04T12:30:36;99595.90;;;25.06;30.97
62703;BME280;66022;50.448;18.122;2023-06-04T12:34:40;99594.37;;;24.96;30.64
62703;BME280;66022;50.448;18.122;2023-06-04T12:38:48;99592.36;;;24.92;31.95
62703;BME280;66022;50.448;18.122;2023-06-04T12:42:57;99590.74;;;24.93;31.84
62703;BME280;66022;50.448;18.122;2023-06-04T12:47:05;99589.25;;;24.95;31.54
62703;BME280;66022;50.448;18.122;2023-06-04T12:51:13;99587.89;;;24.98;31.72
62703;BME280;66022;50.448;18.122;2023-06-04T12:55:21;99586.43;;;25.03;31.44
62703;BME280;66022;50.448;18.122;2023-06-04T12:59:28;99585.44;;;25.11;31.12
62703;BME280;66022;50.448;18.122;2023-06-04T13:03:37;99584.01;;;25.17;28.67
62703;BME280;66022;50.448;18.122;2023-06-04T13:07:44;99583.26;;;25.23;31.41
62703;BME280;66022;50.448;18.122;2023-06-04T13:11:52;99581.56;;;25.21;30.79
62703;BME280;66022;50.448;18.122;2023-06-04T13:16:00;99580.95;;;25.09;31.42
62703;BME280;66022;50.448;18.122;2023-06-04T13:20:09;99578.94;;;25.05;30.07
62703;BME280;66022;50.448;18.122;2023-06-04T13:24:16;99577.47;;;24.97;28.91
62703;BME280;66022;50.448;18.122;2023-06-04T13:28:24;99575.95;;;24.93;28.86
62703;BME280;66022;50.448;18.122;2023-06-04T13:32:33;99573.97;;;24.87;29.56
62703;BME280;66022;50.448;18.122;2023-06-04T13:36:40;99572.69;;;24.81;30.64
62703;BME280;66022;50.448;18.122;2023-06-04T13:40:48;99570.53;;;24.76;30.68
62703;BME280;66022;50.448;18.122;2023-06-04T13:44:56;99567.60;;;24.70;29.86
62703;BME280;66022;50.448;18.122;2023-06-04T13:49:05;99565.64;;;24.69;30.35
62703;BME280;66022;50.448;18.122;2023-06-04T13:53:12;99563.92;;;24.69;29.02
62703;BME280;66022;50.448;18.122;2023-06-04T13:57:21;99562.48;;;24.66;30.50
62703;BME280;66022;50.448;18.122;2023-06-04T14:01:28;99562.80;;;24.64;28.99
62703;BME280;66022;50.448;18.122;2023-06-04T14:05:36;99563.42;;;24.62;29.26
62703;BME280;66022;50.448;18.122;2023-06-04T14:09:44;99563.12;;;24.60;29.83
62703;BME280;66022;50.448;18.122;2023-06-04T14:13:52;99562.17;;;24.56;27.77
62703;BME280;66022;50.448;18.122;2023-06-04T14:18:01;99561.16;;;24.58;29.21
62703;BME280;66022;50.448;18.122;2023-06-04T14:22:09;99558.94;;;24.61;30.04
62703;BME280;66022;50.448;18.122;2023-06-04T14:26:17;99556.89;;;24.60;30.20
62703;BME280;66022;50.448;18.122;2023-06-04T14:30:24;99555.38;;;24.66;29.67
62703;BME280;66022;50.448;18.122;2023-06-04T14:34:35;99553.69;;;24.62;29.04
62703;BME280;66022;50.448;18.122;2023-06-04T14:38:40;99551.14;;;24.57;29.92
62703;BME280;66022;50.448;18.122;2023-06-04T14:42:48;99549.22;;;24.54;29.58
62703;BME280;66022;50.448;18.122;2023-06-04T14:46:57;99547.52;;;24.49;29.79
62703;BME280;66022;50.448;18.122;2023-06-04T14:51:04;99545.70;;;24.44;29.53
62703;BME280;66022;50.448;18.122;2023-06-04T14:55:13;99544.06;;;24.38;29.21
62703;BME280;66022;50.448;18.122;2023-06-04T14:59:20;99542.38;;;24.34;30.23
62703;BME280;66022;50.448;18.122;2023-06-04T15:03:29;99539.36;;;24.31;30.34
62703;BME280;66022;50.448;18.122;2023-06-04T15:07:37;99536.21;;;24.28;31.71
62703;BME280;66022;50.448;18.122;2023-06-04T15:11:44;99533.57;;;24.26;29.85
62703;BME280;66022;50.448;18.122;2023-06-04T15:15:52;99530.94;;;24.20;29.90
62703;BME280;66022;50.448;18.122;2023-06-04T15:20:00;99528.98;;;24.18;31.36
62703;BME280;66022;50.448;18.122;2023-06-04T15:24:08;99527.46;;;24.13;27.28
62703;BME280;66022;50.448;18.122;2023-06-04T15:28:16;99526.53;;;24.10;29.16
62703;BME280;66022;50.448;18.122;2023-06-04T15:32:24;99525.00;;;24.06;29.87
62703;BME280;66022;50.448;18.122;2023-06-04T15:36:32;99523.49;;;24.00;28.41
62703;BME280;66022;50.448;18.122;2023-06-04T15:40:40;99521.33;;;23.94;30.63
62703;BME280;66022;50.448;18.122;2023-06-04T15:44:48;99518.84;;;23.88;29.65
62703;BME280;66022;50.448;18.122;2023-06-04T15:48:56;99516.66;;;23.83;28.98
62703;BME280;66022;50.448;18.122;2023-06-04T15:53:04;99515.25;;;23.79;28.87
62703;BME280;66022;50.448;18.122;2023-06-04T15:57:13;99513.33;;;23.73;30.14
62703;BME280;66022;50.448;18.122;2023-06-04T16:01:20;99512.96;;;23.70;30.43
62703;BME280;66022;50.448;18.122;2023-06-04T16:05:28;99512.41;;;23.66;29.75
62703;BME280;66022;50.448;18.122;2023-06-04T16:09:36;99511.21;;;23.64;30.06
62703;BME280;66022;50.448;18.122;2023-06-04T16:13:45;99511.10;;;23.60;27.49
62703;BME280;66022;50.448;18.122;2023-06-04T16:17:53;99509.48;;;23.58;30.64
62703;BME280;66022;50.448;18.122;2023-06-04T16:22:01;99508.12;;;23.58;31.34
62703;BME280;66022;50.448;18.122;2023-06-04T16:26:09;99507.17;;;23.54;30.80
62703;BME280;66022;50.448;18.122;2023-06-04T16:30:16;99506.93;;;23.53;30.84
62703;BME280;66022;50.448;18.122;2023-06-04T16:34:25;99506.37;;;23.48;29.40
62703;BME280;66022;50.448;18.122;2023-06-04T16:38:33;99505.58;;;23.44;30.66
62703;BME280;66022;50.448;18.122;2023-06-04T16:42:41;99505.70;;;23.39;31.39
62703;BME280;66022;50.448;18.122;2023-06-04T16:46:48;99506.09;;;23.33;31.30
62703;BME280;66022;50.448;18.122;2023-06-04T16:50:57;99506.55;;;23.28;31.76
62703;BME280;66022;50.448;18.122;2023-06-04T16:55:05;99507.56;;;23.21;32.06
62703;BME280;66022;50.448;18.122;2023-06-04T16:59:13;99508.88;;;23.15;33.10
62703;BME280;66022;50.448;18.122;2023-06-04T17:03:21;99510.61;;;23.10;32.76
62703;BME280;66022;50.448;18.122;2023-06-04T17:07:29;99512.12;;;23.03;32.97
62703;BME280;66022;50.448;18.122;2023-06-04T17:11:39;99513.28;;;22.97;32.47
62703;BME280;66022;50.448;18.122;2023-06-04T17:15:44;99514.09;;;22.89;32.21
62703;BME280;66022;50.448;18.122;2023-06-04T17:19:52;99515.00;;;22.83;32.56
62703;BME280;66022;50.448;18.122;2023-06-04T17:24:01;99516.31;;;22.74;32.82
62703;BME280;66022;50.448;18.122;2023-06-04T17:28:08;99518.33;;;22.67;33.58
62703;BME280;66022;50.448;18.122;2023-06-04T17:32:17;99519.90;;;22.60;34.48
62703;BME280;66022;50.448;18.122;2023-06-04T17:36:24;99521.77;;;22.50;34.35
62703;BME280;66022;50.448;18.122;2023-06-04T17:40:33;99523.27;;;22.44;34.88
62703;BME280;66022;50.448;18.122;2023-06-04T17:44:41;99523.74;;;22.35;34.94
62703;BME280;66022;50.448;18.122;2023-06-04T17:48:49;99524.83;;;22.29;36.19
62703;BME280;66022;50.448;18.122;2023-06-04T17:52:56;99525.84;;;22.22;36.51
62703;BME280;66022;50.448;18.122;2023-06-04T17:57:05;99525.99;;;22.13;37.17
62703;BME280;66022;50.448;18.122;2023-06-04T18:01:13;99526.87;;;22.04;37.53
62703;BME280;66022;50.448;18.122;2023-06-04T18:05:21;99527.73;;;21.93;38.24
62703;BME280;66022;50.448;18.122;2023-06-04T18:09:28;99528.16;;;21.84;38.72
62703;BME280;66022;50.448;18.122;2023-06-04T18:13:37;99528.86;;;21.71;39.01
62703;BME280;66022;50.448;18.122;2023-06-04T18:17:45;99529.80;;;21.61;39.45
62703;BME280;66022;50.448;18.122;2023-06-04T18:21:53;99531.34;;;21.50;40.57
62703;BME280;66022;50.448;18.122;2023-06-04T18:26:00;99532.00;;;21.29;41.00
62703;BME280;66022;50.448;18.122;2023-06-04T18:30:09;99532.23;;;21.14;40.73
62703;BME280;66022;50.448;18.122;2023-06-04T18:34:17;99532.28;;;20.97;43.76
62703;BME280;66022;50.448;18.122;2023-06-04T18:38:25;99533.01;;;20.85;43.46
62703;BME280;66022;50.448;18.122;2023-06-04T18:42:33;99533.51;;;20.73;43.74
62703;BME280;66022;50.448;18.122;2023-06-04T18:46:41;99536.52;;;20.58;44.59
62703;BME280;66022;50.448;18.122;2023-06-04T18:50:48;99540.41;;;20.44;45.19
62703;BME280;66022;50.448;18.122;2023-06-04T18:54:56;99543.89;;;20.27;46.67
62703;BME280;66022;50.448;18.122;2023-06-04T18:59:05;99547.99;;;20.10;45.33
62703;BME280;66022;50.448;18.122;2023-06-04T19:03:13;99551.93;;;19.95;46.55
62703;BME280;66022;50.448;18.122;2023-06-04T19:07:21;99555.28;;;19.76;47.62
62703;BME280;66022;50.448;18.122;2023-06-04T19:11:29;99558.76;;;19.55;47.56
62703;BME280;66022;50.448;18.122;2023-06-04T19:15:37;99563.68;;;19.34;47.18
62703;BME280;66022;50.448;18.122;2023-06-04T19:19:48;99567.67;;;19.18;46.76
62703;BME280;66022;50.448;18.122;2023-06-04T19:23:52;99572.17;;;18.98;48.27
62703;BME280;66022;50.448;18.122;2023-06-04T19:28:01;99575.35;;;18.85;45.15
62703;BME280;66022;50.448;18.122;2023-06-04T19:32:09;99577.50;;;18.70;44.61
62703;BME280;66022;50.448;18.122;2023-06-04T19:36:16;99580.74;;;18.53;44.17
62703;BME280;66022;50.448;18.122;2023-06-04T19:40:25;99584.55;;;18.41;44.02
62703;BME280;66022;50.448;18.122;2023-06-04T19:44:33;99588.00;;;18.28;42.66
62703;BME280;66022;50.448;18.122;2023-06-04T19:48:41;99591.17;;;18.21;40.92
62703;BME280;66022;50.448;18.122;2023-06-04T19:52:49;99593.89;;;18.17;39.76
62703;BME280;66022;50.448;18.122;2023-06-04T19:56:57;99596.03;;;18.16;39.22
62703;BME280;66022;50.448;18.122;2023-06-04T20:01:05;99598.14;;;18.19;39.21
62703;BME280;66022;50.448;18.122;2023-06-04T20:05:13;99598.92;;;18.22;39.00
62703;BME280;66022;50.448;18.122;2023-06-04T20:09:21;99599.88;;;18.25;39.08
62703;BME280;66022;50.448;18.122;2023-06-04T20:13:29;99601.98;;;18.27;39.51
62703;BME280;66022;50.448;18.122;2023-06-04T20:17:37;99605.36;;;18.28;39.18
62703;BME280;66022;50.448;18.122;2023-06-04T20:21:45;99607.87;;;18.29;39.26
62703;BME280;66022;50.448;18.122;2023-06-04T20:25:53;99609.78;;;18.26;39.32
62703;BME280;66022;50.448;18.122;2023-06-04T20:30:01;99612.77;;;18.26;39.42
62703;BME280;66022;50.448;18.122;2023-06-04T20:34:09;99614.06;;;18.22;39.28
62703;BME280;66022;50.448;18.122;2023-06-04T20:38:17;99616.68;;;18.21;39.17
62703;BME280;66022;50.448;18.122;2023-06-04T20:42:24;99618.11;;;18.19;39.11
62703;BME280;66022;50.448;18.122;2023-06-04T20:46:33;99620.01;;;18.16;38.83
62703;BME280;66022;50.448;18.122;2023-06-04T20:50:41;99622.94;;;18.16;38.79
62703;BME280;66022;50.448;18.122;2023-06-04T20:54:49;99623.55;;;18.14;38.71
62703;BME280;66022;50.448;18.122;2023-06-04T20:58:57;99625.05;;;18.15;38.55
62703;BME280;66022;50.448;18.122;2023-06-04T21:03:05;99625.97;;;18.15;38.67
62703;BME280;66022;50.448;18.122;2023-06-04T21:07:13;99627.59;;;18.14;38.44
62703;BME280;66022;50.448;18.122;2023-06-04T21:11:21;99628.28;;;18.13;38.79
62703;BME280;66022;50.448;18.122;2023-06-04T21:15:29;99627.86;;;18.09;38.96
62703;BME280;66022;50.448;18.122;2023-06-04T21:19:37;99627.42;;;18.05;38.63
62703;BME280;66022;50.448;18.122;2023-06-04T21:23:44;99627.78;;;18.00;38.62
62703;BME280;66022;50.448;18.122;2023-06-04T21:27:55;99629.17;;;17.95;38.54
62703;BME280;66022;50.448;18.122;2023-06-04T21:32:01;99629.81;;;17.91;38.87
62703;BME280;66022;50.448;18.122;2023-06-04T21:36:09;99629.60;;;17.84;38.84
62703;BME280;66022;50.448;18.122;2023-06-04T21:40:17;99628.39;;;17.80;38.98
62703;BME280;66022;50.448;18.122;2023-06-04T21:44:26;99628.83;;;17.75;38.88
62703;BME280;66022;50.448;18.122;2023-06-04T21:48:33;99629.91;;;17.71;38.61
62703;BME280;66022;50.448;18.122;2023-06-04T21:52:41;99631.16;;;17.68;38.87
62703;BME280;66022;50.448;18.122;2023-06-04T21:56:49;99632.23;;;17.65;38.60
62703;BME280;66022;50.448;18.122;2023-06-04T22:00:57;99634.30;;;17.62;38.66